Rainier — WTEF — position and weather

sailwx.info

Track history (hours):
 
Tides and Currents Weather Stations Pressure Air Temp Water Temp Dewpoint Dewpoint Depression Visibility Wind Speed Wind Dir Waves Ship Positions

Oceanographic research ship Rainier (USA)

Detailed information on ship capabilities available from University of Delaware's Ocean Information Center.

Last reported at 2019-Jun-19 20:00 UTC. Time now 2019-Jun-19 20:51 UTC.
Position N 57°30' W 152°42'.

Type: Other ship. MMSI: 303935000.

Wind from 130 at 13 knots

Barometer 1023.6 mb
Air temperature 13.0 ° C
Dewpoint 9.3 ° C

Date/timePositionNaut miles runAvg speedWind from/ knotsBaromVisibWave heightAir tempDewpointWater temp
2019-Jun-19 20:00N 57°30' W 152°42'0 0.0 130 / 131023.6 13.0 9.3
2019-Jun-19 19:00N 57°30' W 152°42'0 0.0 140 / 141023.6 12.2 9.0
2019-Jun-19 17:00N 57°30' W 152°42'0 0.0 340 1023.2 14.2 9.4
2019-Jun-19 16:00N 57°30' W 152°42'0 0.0 270 / 41023.2 13.5 9.0
2019-Jun-19 15:00N 57°30' W 152°42'0 0.0 1023.1 9.6 8.8
2019-Jun-19 14:00N 57°30' W 152°42'0 0.0 030 / 31022.7 9.4 8.8
2019-Jun-19 13:00N 57°30' W 152°42'0 0.0 1022.4 10.0 8.8
2019-Jun-19 12:00N 57°30' W 152°42'0 0.0 010 / 21022.2 9.9 8.7
2019-Jun-19 11:00N 57°30' W 152°42'0 0.0 070 / 11022.1 10.5 8.9
2019-Jun-19 10:00N 57°30' W 152°42'0 0.0 030 / 21021.6 9.8 8.4
2019-Jun-19 09:00N 57°30' W 152°42'0 0.0 030 / 41021.1 9.8 8.4
2019-Jun-19 08:00N 57°30' W 152°42'0 0.0 020 / 31021.0 10.3 8.4
2019-Jun-19 07:00N 57°30' W 152°42'0 0.0 050 / 21020.5 11.4 8.4
2019-Jun-19 06:00N 57°30' W 152°42'0 0.0 210 / 41020.0 12.2 8.1
2019-Jun-19 04:00N 57°30' W 152°42'0 0.0 280 / 41019.3 12.1 8.8
2019-Jun-19 03:00N 57°30' W 152°42'0 0.0 270 / 21019.0 12.9 7.6
2019-Jun-19 02:00N 57°30' W 152°42'0 0.0 130 / 71018.3 12.6 7.9
2019-Jun-19 01:00N 57°30' W 152°42'0 0.0 130 / 131017.7 11.8 7.7
2019-Jun-19 00:00N 57°30' W 152°42'0 0.0 130 / 151017.1 11.7 7.4
2019-Jun-18 23:00N 57°30' W 152°42'0 0.0 130 / 151016.3 12.0 6.7
2019-Jun-18 22:00N 57°30' W 152°42'0 0.0 140 / 131015.7 12.4 6.7
2019-Jun-18 21:00N 57°30' W 152°42'0 0.0 150 / 91015.1 12.2 6.5
2019-Jun-18 20:00N 57°30' W 152°42'0 0.0 160 / 61014.6 13.1 5.0
2019-Jun-18 19:00N 57°30' W 152°42'0 0.0 010 / 21014.3 11.7 4.9
2019-Jun-18 18:00N 57°30' W 152°42'0 0.0 300 / 21013.9 10.9 6.6
2019-Jun-18 17:00N 57°30' W 152°42'0 0.0 290 / 61013.3 9.6 7.4
2019-Jun-18 16:00N 57°30' W 152°42'0 0.0 290 / 51012.7 8.9 5.6
2019-Jun-18 15:00N 57°30' W 152°42'0 0.0 340 / 11011.6 8.8 6.1
2019-Jun-18 14:00N 57°30' W 152°42'0 0.0 010 / 31011.0 8.6 6.1
2019-Jun-18 12:00N 57°30' W 152°42'0 0.0 070 / 41009.8 10.0 7.4
2019-Jun-18 11:00N 57°30' W 152°42'0 0.0 060 / 41009.1 9.9 7.7
2019-Jun-18 10:00N 57°30' W 152°42'0 0.0 050 / 71008.4 10.3 7.7
2019-Jun-18 09:00N 57°30' W 152°42'0 0.0 050 / 21007.9 10.2 8.0
2019-Jun-18 08:00N 57°30' W 152°42'0 0.0 020 / 71007.3 10.1 8.2
2019-Jun-18 07:00N 57°30' W 152°42'0 0.0 060 / 51007.0 10.7 8.1
2019-Jun-18 06:00N 57°30' W 152°42'0 0.0 080 / 11006.2 10.9 8.3
2019-Jun-18 05:00N 57°30' W 152°42'0 0.0 040 / 31005.6 11.0 8.6
2019-Jun-18 04:00N 57°30' W 152°42'7 6.8 050 / 61004.7 11.4 8.8
2019-Jun-18 03:00N 57°24' W 152°36'10 9.7 100 / 51005.8 5.4 10.5 9.3 9.4
2019-Jun-18 02:00N 57°24' W 152°18'1413.6 040 / 121004.0 10.6 8.9
2019-Jun-18 01:00N 57°36' W 152°06'14 4.7 030 / 71003.6 10.1 9.3
2019-Jun-17 22:00N 57°42' W 152°30'0 0.0 070 / 51002.7 10.610.4
2019-Jun-17 21:00N 57°42' W 152°30'0 0.0 060 / 91002.4 10.410.2
2019-Jun-17 20:00N 57°42' W 152°30'0 0.0 040 / 91001.9 10.510.2
2019-Jun-17 19:00N 57°42' W 152°30'0 0.0 040 / 101001.6 10.710.2
2019-Jun-17 18:00N 57°42' W 152°30'0 0.0 040 / 91001.3 11.2 9.5
2019-Jun-17 17:00N 57°42' W 152°30'0 0.0 010 / 81001.0 11.0 9.6
2019-Jun-17 16:00N 57°42' W 152°30'0 0.0 010 / 131000.8 10.6 9.0
2019-Jun-17 15:00N 57°42' W 152°30'0 0.0 020 / 111000.8 10.9 9.5
2019-Jun-17 14:00N 57°42' W 152°30'0 0.0 010 / 91000.8 10.5 9.3
2019-Jun-17 13:00N 57°42' W 152°30'0 0.0 030 / 151001.3 10.0 8.8
2019-Jun-17 12:00N 57°42' W 152°30'0 0.0 020 / 151001.8 9.8 8.9
2019-Jun-17 11:00N 57°42' W 152°30'0 0.0 030 / 141002.2 9.8 8.9
2019-Jun-17 10:00N 57°42' W 152°30'0 0.0 030 / 121002.4 9.6 8.8
2019-Jun-17 09:00N 57°42' W 152°30'0 0.0 040 / 171003.0 9.8 8.9
2019-Jun-17 08:00N 57°42' W 152°30'0 0.0 040 / 181003.1 9.8 8.6
2019-Jun-17 07:00N 57°42' W 152°30'0 0.0 040 / 171003.8 9.8 8.7
2019-Jun-17 06:00N 57°42' W 152°30'0 0.0 040 / 111004.1 9.7 8.9
2019-Jun-17 05:00N 57°42' W 152°30'0 0.0 040 / 141004.5 9.6 8.5
2019-Jun-17 04:00N 57°42' W 152°30'0 0.0 040 / 151004.7 9.8 8.7
2019-Jun-17 03:00N 57°42' W 152°30'0 0.0 040 / 141005.0 9.7 8.1
2019-Jun-17 02:00N 57°42' W 152°30'0 0.0 050 / 161005.3 9.9 8.5
2019-Jun-17 01:00N 57°42' W 152°30'0 0.0 040 / 111005.6 10.4 8.5
2019-Jun-17 00:00N 57°42' W 152°30'0 0.0 040 / 121005.9 10.1 8.7
2019-Jun-16 23:00N 57°42' W 152°30'0 0.0 040 / 141006.2 9.5 8.4
2019-Jun-16 22:00N 57°42' W 152°30'0 0.0 050 / 161006.2 10.8 8.0
2019-Jun-16 21:00N 57°42' W 152°30'0 0.0 050 / 111006.6 10.9 7.0
2019-Jun-16 20:00N 57°42' W 152°30'0 0.0 050 / 101006.8 10.9 7.2
2019-Jun-16 19:00N 57°42' W 152°30'0 0.0 060 / 91006.8 10.9 8.0
2019-Jun-16 18:00N 57°42' W 152°30'0 0.0 050 / 71007.0 10.5 7.7
2019-Jun-16 17:00N 57°42' W 152°30'0 0.0 040 / 51007.0 10.0 7.8
2019-Jun-16 16:00N 57°42' W 152°30'0 0.0 170 / 11007.1 7.3 6.6
2019-Jun-16 15:00N 57°42' W 152°30'0 0.0 220 / 21007.0 5.5 5.1
2019-Jun-16 14:00N 57°42' W 152°30'0 0.0 170 / 11006.8 5.6 5.3
2019-Jun-16 13:00N 57°42' W 152°30'0 0.0 080 1006.7 5.4 5.1
2019-Jun-16 12:00N 57°42' W 152°30'0 0.0 210 / 31006.7 5.6 5.3
2019-Jun-16 11:00N 57°42' W 152°30'0 0.0 150 / 11006.8 6.0 5.6
2019-Jun-16 10:00N 57°42' W 152°30'0 0.0 220 / 31006.8 6.7 6.1
2019-Jun-16 09:00N 57°42' W 152°30'0 0.0 150 / 11006.8 7.7 6.8
2019-Jun-16 08:00N 57°42' W 152°30'0 0.0 240 / 21006.8 9.2 7.6
2019-Jun-16 07:00N 57°42' W 152°30'0 0.0 360 / 31006.7 10.5 8.6
2019-Jun-16 06:00N 57°42' W 152°30'0 0.0 040 / 91006.4 10.4 8.3
2019-Jun-16 05:00N 57°42' W 152°30'0 0.0 040 / 81006.2 10.8 8.7
2019-Jun-16 04:00N 57°42' W 152°30'0 0.0 010 / 121006.2 11.5 8.9
2019-Jun-16 03:00N 57°42' W 152°30'0 0.0 020 / 21006.2 13.6 8.4
2019-Jun-16 02:00N 57°42' W 152°30'0 0.0 070 / 51006.2 12.7 8.4
2019-Jun-16 01:00N 57°42' W 152°30'0 0.0 050 / 71006.3 12.9 8.4
2019-Jun-16 00:00N 57°42' W 152°30'0 0.0 060 / 71006.2 11.3 9.7
2019-Jun-15 23:00N 57°42' W 152°30'0 0.0 010 / 71006.2 10.510.3
2019-Jun-15 22:00N 57°42' W 152°30'0 0.0 050 / 71006.2 9.8 9.8
2019-Jun-15 21:00N 57°42' W 152°30'0 0.0 060 / 91006.2 9.9 9.9
2019-Jun-15 20:00N 57°42' W 152°30'0 0.0 050 / 81006.2 10.010.0
2019-Jun-15 19:00N 57°42' W 152°30'0 0.0 060 / 101006.2 10.010.0
2019-Jun-15 18:00N 57°42' W 152°30'0 0.0 050 / 91006.2 9.9 9.9
2019-Jun-15 17:00N 57°42' W 152°30'0 0.0 050 / 81006.2 9.8 9.8
2019-Jun-15 16:00N 57°42' W 152°30'0 0.0 060 / 61006.4 9.8 9.8
2019-Jun-15 15:00N 57°42' W 152°30'0 0.0 060 / 91006.4 9.9 9.9
2019-Jun-15 14:00N 57°42' W 152°30'0 0.0 050 / 91006.5 9.9 9.9
2019-Jun-15 13:00N 57°42' W 152°30'0 0.0 050 / 81006.8 10.010.0
2019-Jun-15 12:00N 57°42' W 152°30'0 0.0 050 / 81007.1 9.9 9.9
2019-Jun-15 11:00N 57°42' W 152°30'0 0.0 050 / 61007.4 10.010.0
2019-Jun-15 10:00N 57°42' W 152°30'0 0.0 050 / 71007.9 10.0 9.9
2019-Jun-15 09:00N 57°42' W 152°30'0 0.0 050 / 81008.2 10.110.1
2019-Jun-15 08:00N 57°42' W 152°30'0 0.0 050 / 101008.4 9.9 9.9
2019-Jun-15 07:00N 57°42' W 152°30'0 0.0 060 / 81008.4 10.010.0
2019-Jun-15 06:00N 57°42' W 152°30'0 0.0 050 / 91008.4 10.0 9.9
2019-Jun-15 05:00N 57°42' W 152°30'0 0.0 060 / 101008.7 10.1 9.9
2019-Jun-15 04:00N 57°42' W 152°30'0 0.0 050 / 81009.0 10.1 9.8
2019-Jun-15 03:00N 57°42' W 152°30'0 0.0 060 / 121009.5 10.1 9.8
2019-Jun-15 02:00N 57°42' W 152°30'0 0.0 050 / 111009.9 10.2 9.7
2019-Jun-15 01:00N 57°42' W 152°30'0 0.0 060 / 111010.1 10.3 9.7
2019-Jun-15 00:00N 57°42' W 152°30'0 0.0 060 / 91010.5 10.1 9.3
2019-Jun-14 23:00N 57°42' W 152°30'0 0.0 060 / 81010.7 10.4 9.3
2019-Jun-14 22:00N 57°42' W 152°30'0 0.0 070 / 81011.0 10.2 9.3
2019-Jun-14 21:00N 57°42' W 152°30'0 0.0 060 / 71011.2 10.3 9.4
2019-Jun-14 20:00N 57°42' W 152°30'0 0.0 060 / 81011.6 10.3 9.1
2019-Jun-14 19:00N 57°42' W 152°30'0 0.0 050 / 71011.8 10.0 8.9
2019-Jun-14 18:00N 57°42' W 152°30'0 0.0 050 / 71011.9 9.8 8.9
2019-Jun-14 17:00N 57°42' W 152°30'0 0.0 050 / 61012.2 9.9 9.3
2019-Jun-14 16:00N 57°42' W 152°30'6 6.4 070 / 141012.2 9.3 9.3
2019-Jun-14 15:00N 57°42' W 152°18'9 8.8 130 / 141012.5 9.1 9.1
2019-Jun-14 14:00N 57°36' W 152°06'333026463.4 150 / 111012.2 9.1 9.0
2019-Jun-14 13:52N 36°51' W 076°18'0 0.8
2019-Jun-14 13:27N 36°51' W 076°18'33317150.2
2019-Jun-14 13:00N 57°30' W 152°06'0 0.0 150 / 51012.2 9.3 9.3
2019-Jun-14 12:00N 57°30' W 152°06'0 0.0 070 / 71012.4 9.7 9.6
2019-Jun-14 11:00N 57°30' W 152°06'6 6.0 080 / 121012.8 9.8 9.7
2019-Jun-14 10:00N 57°24' W 152°06'0 0.0 080 / 121013.3 10.0 9.7
2019-Jun-14 09:00N 57°24' W 152°06'7 6.8 080 / 91013.6 9.9 9.4
2019-Jun-14 08:00N 57°30' W 152°00'3 3.2 110 / 111014.1 9.9 9.6
2019-Jun-14 07:00N 57°30' W 152°06'3 1.6 090 / 81013.9 9.9 9.6
2019-Jun-14 05:00N 57°30' W 152°00'7 6.8 120 / 91014.4 9.6 9.5
2019-Jun-14 04:00N 57°24' W 152°06'7 6.8 100 / 81014.7 9.6 9.5
2019-Jun-14 03:00N 57°30' W 152°00'7 6.8 130 / 51016.5 9.8 9.6
2019-Jun-14 02:00N 57°24' W 152°06'0 0.0 120 / 101014.8 10.1 9.9
2019-Jun-14 00:00N 57°24' W 152°06'1212.4 090 / 131015.4 10.3 9.8
2019-Jun-13 23:00N 57°36' W 152°00'1212.4 070 / 101015.6 10.310.1
2019-Jun-13 22:00N 57°24' W 152°06'3 3.2 080 / 71015.4 10.2 9.3
2019-Jun-13 21:00N 57°24' W 152°00'6 6.0 080 / 91016.5 5.4 9.9 9.7 8.3
2019-Jun-13 20:00N 57°30' W 152°00'0 0.0 110 / 81015.0 10.1 9.8
2019-Jun-13 19:00N 57°30' W 152°00'7 6.8 080 / 71014.7 10.210.2
2019-Jun-13 18:00N 57°24' W 152°06'10 9.7 100 / 71014.5 9.4 9.4
2019-Jun-13 17:00N 57°24' W 152°24'6 6.5 050 / 121013.9 9.7 9.2
2019-Jun-13 16:00N 57°24' W 152°36'7 6.8 090 / 71014.2 9.9 9.4
2019-Jun-13 15:00N 57°30' W 152°42'0 0.0 130 / 31014.4 10.6 9.5
2019-Jun-13 14:00N 57°30' W 152°42'0 0.0 110 / 21013.9 10.4 9.3
2019-Jun-13 13:00N 57°30' W 152°42'0 0.0 360 / 41013.9 10.0 9.2
2019-Jun-13 12:00N 57°30' W 152°42'0 0.0 340 / 51013.9 9.9 9.0
2019-Jun-13 11:00N 57°30' W 152°42'0 0.0 110 / 31014.0 10.4 9.3
2019-Jun-13 10:00N 57°30' W 152°42'0 0.0 030 / 81013.9 9.8 9.0
2019-Jun-13 09:00N 57°30' W 152°42'0 0.0 020 / 81013.9 10.2 9.4
2019-Jun-13 08:00N 57°30' W 152°42'0 0.0 050 / 91013.6 10.7 9.5
2019-Jun-13 07:00N 57°30' W 152°42'0 0.0 040 / 61013.3 11.2 9.6
2019-Jun-13 06:00N 57°30' W 152°42'0 0.0 020 / 111013.0 11.2 9.6
2019-Jun-13 05:00N 57°30' W 152°42'0 0.0 030 / 101012.8 11.7 9.6
2019-Jun-13 04:00N 57°30' W 152°42'0 0.0 030 / 71012.2 12.5 9.9
2019-Jun-13 03:00N 57°30' W 152°42'0 0.0 160 / 31012.2 12.010.4
2019-Jun-13 02:00N 57°30' W 152°42'0 0.0 210 / 31012.4 12.310.2
2019-Jun-13 01:00N 57°30' W 152°42'0 0.0 100 / 31012.5 12.6 9.8
2019-Jun-13 00:00N 57°30' W 152°42'0 0.0 160 / 21012.7 12.5 9.9
2019-Jun-12 23:00N 57°30' W 152°42'0 0.0 010 / 151012.5 12.7 9.5
2019-Jun-12 22:00N 57°30' W 152°42'0 0.0 360 / 111012.2 12.9 9.4
2019-Jun-12 21:00N 57°30' W 152°42'0 0.0 030 / 101012.1 12.410.0
2019-Jun-12 20:00N 57°30' W 152°42'0 0.0 030 / 151011.8 12.0 9.6
2019-Jun-12 19:00N 57°30' W 152°42'0 0.0 1011.6 12.3 9.7
2019-Jun-12 18:00N 57°30' W 152°42'335385614.3 010 / 141011.6 11.2 9.8
2019-Jun-12 17:57N 36°51' W 076°18'1 1.8
2019-Jun-12 17:30N 36°50' W 076°18'33546537.4
2019-Jun-12 17:00N 57°30' W 152°42'335433170.0 020 / 101011.2 11.3 9.9
2019-Jun-12 16:53N 36°51' W 076°18'33543731.1
2019-Jun-12 16:00N 57°30' W 152°42'33534364.6 010 / 61011.3 11.0 9.8
2019-Jun-12 15:13N 36°51' W 076°18'335314475.4
2019-Jun-12 15:00N 57°30' W 152°42'335414618.0 010 / 81011.5 10.6 9.2
2019-Jun-12 14:46N 36°50' W 076°18'0 0.0
2019-Jun-12 14:30N 36°50' W 076°18'33546502.1
2019-Jun-12 14:00N 57°30' W 152°42'0 0.0 1011.3 10.6 9.4
2019-Jun-12 13:00N 57°30' W 152°42'0 0.0 350 / 121011.2 10.8 9.9
2019-Jun-12 12:00N 57°30' W 152°42'0 0.0 010 / 121011.0 10.9 9.7
2019-Jun-12 11:00N 57°30' W 152°42'0 0.0 020 / 121010.7 11.2 9.5
2019-Jun-12 10:00N 57°30' W 152°42'0 0.0 010 / 131010.8 11.4 9.7
2019-Jun-12 09:00N 57°30' W 152°42'0 0.0 1010.5 11.5 9.9
2019-Jun-12 08:00N 57°30' W 152°42'0 0.0 050 / 61010.1 12.4 9.6
2019-Jun-12 07:00N 57°30' W 152°42'0 0.0 020 / 91009.8 13.2 9.1
2019-Jun-12 06:00N 57°30' W 152°42'0 0.0 340 / 51009.6 13.5 9.2
2019-Jun-12 05:00N 57°30' W 152°42'0 0.0 010 / 111009.3 13.4 8.9
2019-Jun-12 04:00N 57°30' W 152°42'0 0.0 020 / 151009.3 13.9 8.7
2019-Jun-12 03:00N 57°30' W 152°42'0 0.0 030 / 171009.4 14.2 8.6
2019-Jun-12 02:00N 57°30' W 152°42'0 0.0 010 / 111009.6 14.1 8.7
2019-Jun-12 01:00N 57°30' W 152°42'0 0.0 030 / 171009.6 14.6 9.0
2019-Jun-12 00:00N 57°30' W 152°42'0 0.0 020 / 171009.9 13.9 9.3
2019-Jun-11 23:00N 57°30' W 152°42'0 0.0 010 / 111010.1 13.6 9.6
2019-Jun-11 22:00N 57°30' W 152°42'0 0.0 020 / 131010.2 13.310.3
2019-Jun-11 21:00N 57°30' W 152°42'0 0.0 010 / 151010.1 12.210.9
2019-Jun-11 20:00N 57°30' W 152°42'0 0.0 020 / 171010.1 12.110.7
2019-Jun-11 19:00N 57°30' W 152°42'0 0.0 020 / 161009.9 11.510.6
2019-Jun-11 18:00N 57°30' W 152°42'0 0.0 020 / 211009.5 11.510.2
2019-Jun-11 17:00N 57°30' W 152°42'0 0.0 020 / 191009.5 11.410.1
2019-Jun-11 16:00N 57°30' W 152°42'0 0.0 010 / 141009.6 11.2 9.9
2019-Jun-11 15:00N 57°30' W 152°42'0 0.0 020 / 131009.8 10.9 9.8
2019-Jun-11 14:00N 57°30' W 152°42'0 0.0 020 / 171009.9 10.7 9.9
2019-Jun-11 13:00N 57°30' W 152°42'0 0.0 010 / 111010.1 10.5 9.9
2019-Jun-11 12:00N 57°30' W 152°42'0 0.0 350 / 81010.4 10.3 9.5
2019-Jun-11 11:00N 57°30' W 152°42'0 0.0 010 / 101010.7 9.8 8.9
2019-Jun-11 10:00N 57°30' W 152°42'0 0.0 350 / 51010.8 11.2 5.9
2019-Jun-11 09:00N 57°30' W 152°42'0 0.0 330 / 41011.6 11.5 5.8
2019-Jun-11 08:00N 57°30' W 152°42'0 0.0 010 / 131011.8 11.7 5.1
2019-Jun-11 07:00N 57°30' W 152°42'0 0.0 010 / 141011.8 11.5 5.4
2019-Jun-11 06:00N 57°30' W 152°42'0 0.0 010 / 151011.9 11.7 6.0
2019-Jun-11 05:00N 57°30' W 152°42'0 0.0 020 / 171011.9 11.9 6.2
2019-Jun-11 04:00N 57°30' W 152°42'0 0.0 1012.5 11.9 6.6
2019-Jun-11 03:00N 57°30' W 152°42'0 0.0 020 / 171013.0 12.4 6.7
2019-Jun-11 02:00N 57°30' W 152°42'0 0.0 030 / 151013.7 12.6 6.9
2019-Jun-11 01:00N 57°30' W 152°42'0 0.0 020 / 151014.0 13.2 6.5
2019-Jun-11 00:00N 57°30' W 152°42'0 0.0 030 / 101014.6 13.3 6.6
2019-Jun-10 23:00N 57°30' W 152°42'0 0.0 030 / 131014.9 14.1 6.2
2019-Jun-10 22:00N 57°30' W 152°42'0 0.0 030 / 101015.4 13.9 6.0
2019-Jun-10 21:00N 57°30' W 152°42'0 0.0 1015.6 12.2 5.6
2019-Jun-10 20:00N 57°30' W 152°42'0 0.0 030 / 101016.0 12.5 6.1
2019-Jun-10 19:00N 57°30' W 152°42'33539028.8 030 / 51016.5 11.5 6.2
2019-Jun-10 18:37N 36°51' W 076°18'33535334.3
2019-Jun-10 18:00N 57°30' W 152°42'0 0.0 120 / 121016.6 10.4 6.0
2019-Jun-10 17:00N 57°30' W 152°42'0 0.0 150 / 71016.6 9.5 6.8
2019-Jun-10 16:00N 57°30' W 152°42'0 0.0 290 / 41016.8 9.5 6.2
2019-Jun-10 15:00N 57°30' W 152°42'0 0.0 290 / 41017.3 7.4 5.9
2019-Jun-10 14:00N 57°30' W 152°42'335438447.8 040 / 41017.8 5.1 4.5
2019-Jun-10 13:54N 36°51' W 076°18'33543674.0
2019-Jun-10 13:00N 57°30' W 152°42'0 0.0 350 / 41018.1 4.5 3.9
2019-Jun-10 12:00N 57°30' W 152°42'0 0.0 010 / 41018.5 5.3 4.4
2019-Jun-10 11:00N 57°30' W 152°42'0 0.0 360 / 41019.0 6.3 5.1
2019-Jun-10 10:00N 57°30' W 152°42'0 0.0 010 / 41019.8 7.6 5.6
2019-Jun-10 09:00N 57°30' W 152°42'0 0.0 010 / 41020.1 8.0 5.6
2019-Jun-10 08:00N 57°30' W 152°42'0 0.0 080 / 71020.1 8.8 5.5
2019-Jun-10 07:00N 57°30' W 152°42'0 0.0 080 / 111019.9 9.6 5.8
2019-Jun-10 06:00N 57°30' W 152°42'0 0.0 040 / 101019.9 10.7 5.5
2019-Jun-10 05:00N 57°30' W 152°42'0 0.0 030 / 111020.2 11.5 5.4
2019-Jun-10 04:00N 57°30' W 152°42'0 0.0 080 / 91021.0 11.2 5.3
2019-Jun-10 03:00N 57°30' W 152°42'0 0.0 030 / 101021.3 11.6 5.3
2019-Jun-10 02:00N 57°30' W 152°42'0 0.0 020 / 111021.6 11.5 4.9
2019-Jun-10 01:00N 57°30' W 152°42'0 0.0 010 / 81022.4 11.5 5.8
2019-Jun-10 00:00N 57°30' W 152°42'0 0.0 010 / 111022.7 11.2 6.1
2019-Jun-09 23:00N 57°30' W 152°42'0 0.0 100 / 71023.1 11.5 5.6
2019-Jun-09 22:00N 57°30' W 152°42'0 0.0 030 / 111023.1 11.6 4.6
2019-Jun-09 21:00N 57°30' W 152°42'0 0.0 010 / 81023.1 11.4 5.1
2019-Jun-09 20:00N 57°30' W 152°42'0 0.0 060 / 41023.4 10.7 4.8
2019-Jun-09 19:00N 57°30' W 152°42'0 0.0 110 / 41023.1 10.4 4.5
2019-Jun-09 18:00N 57°30' W 152°42'0 0.0 080 / 51023.0 10.0 5.2
2019-Jun-09 17:00N 57°30' W 152°42'0 0.0 040 / 31023.0 9.1 6.0
2019-Jun-09 16:00N 57°30' W 152°42'0 0.0 010 / 51022.7 9.3 5.3
2019-Jun-09 15:00N 57°30' W 152°42'0 0.0 020 / 21022.5 9.0 4.6
2019-Jun-09 14:00N 57°30' W 152°42'0 0.0 110 / 51022.4 8.7 6.0
2019-Jun-09 13:00N 57°30' W 152°42'0 0.0 090 / 61022.2 9.0 4.6
2019-Jun-09 12:00N 57°30' W 152°42'0 0.0 030 / 31022.2 8.6 5.2
2019-Jun-09 11:00N 57°30' W 152°42'0 0.0 040 / 61022.4 8.7 5.3
2019-Jun-09 10:00N 57°30' W 152°42'0 0.0 080 / 51022.5 8.6 6.2
2019-Jun-09 09:00N 57°30' W 152°42'0 0.0 090 / 51022.5 8.9 6.0
2019-Jun-09 08:00N 57°30' W 152°42'0 0.0 080 / 61022.4 8.7 7.0
2019-Jun-09 07:00N 57°30' W 152°42'0 0.0 170 / 11021.9 8.9 7.0
2019-Jun-09 06:00N 57°30' W 152°42'0 0.0 080 / 71021.2 8.8 7.1
2019-Jun-09 05:00N 57°30' W 152°42'0 0.0 140 / 91020.7 9.2 6.6
2019-Jun-09 04:00N 57°30' W 152°42'0 0.0 140 / 81020.4 9.2 7.2
2019-Jun-09 03:00N 57°30' W 152°42'0 0.0 130 / 101020.4 9.0 6.8
2019-Jun-09 02:00N 57°30' W 152°42'0 0.0 130 / 141020.4 9.0 7.3
2019-Jun-09 01:00N 57°30' W 152°42'0 0.0 130 / 131020.2 9.2 7.3
2019-Jun-09 00:00N 57°30' W 152°42'0 0.0 130 / 151020.2 9.3 7.9
2019-Jun-08 23:00N 57°30' W 152°42'0 0.0 130 / 141020.1 9.3 8.4
2019-Jun-08 22:00N 57°30' W 152°42'7 3.4 140 / 121019.9 9.6 8.5
2019-Jun-08 20:00N 57°24' W 152°36'10 9.7 150 / 31019.6 8.5 8.5
2019-Jun-08 19:00N 57°24' W 152°18'7 6.8 180 / 41019.4 8.2 8.2
2019-Jun-08 18:00N 57°30' W 152°12'7 6.8 220 / 81019.2 8.3 8.3
2019-Jun-08 17:00N 57°36' W 152°06'0 0.0 200 / 81018.7 8.1 8.1
2019-Jun-08 16:00N 57°36' W 152°06'6 6.4 170 / 91018.2 8.0 8.0
2019-Jun-08 15:00N 57°36' W 152°18'0 0.0 1017.9 7.8 7.8
2019-Jun-08 14:00N 57°36' W 152°18'0 0.0 070 / 11017.4 8.1 8.1
2019-Jun-08 13:00N 57°36' W 152°18'0 0.0 010 / 51017.3 7.9 7.9
2019-Jun-08 12:00N 57°36' W 152°18'0 0.0 130 / 21017.6 8.3 8.3
2019-Jun-08 11:00N 57°36' W 152°18'0 0.0 300 / 31017.1 8.7 8.7
2019-Jun-08 10:00N 57°36' W 152°18'0 0.0 330 / 21017.1 8.3 8.3
2019-Jun-08 09:00N 57°36' W 152°18'0 0.0 310 / 61017.1 8.1 8.1
2019-Jun-08 08:00N 57°36' W 152°18'0 0.0 290 / 81017.1 8.0 8.0
2019-Jun-08 07:00N 57°36' W 152°18'0 0.0 280 / 121016.5 8.3 8.3
2019-Jun-08 06:00N 57°36' W 152°18'0 0.0 270 / 101015.9 10.8 9.9
2019-Jun-08 05:00N 57°36' W 152°18'0 0.0 270 / 41015.5 13.711.0
2019-Jun-08 03:00N 57°36' W 152°18'0 0.0 110 / 111015.2 17.5 9.4
2019-Jun-08 02:00N 57°36' W 152°18'0 0.0 110 / 151015.2 17.3 8.7
2019-Jun-08 01:00N 57°36' W 152°18'0 0.0 110 / 151015.6 16.6 9.3
2019-Jun-08 00:00N 57°36' W 152°18'0 0.0 100 / 141015.7 15.2 9.3
2019-Jun-07 23:00N 57°36' W 152°18'0 0.0 100 / 141015.7 15.9 8.4
2019-Jun-07 22:00N 57°36' W 152°18'0 0.0 090 / 101016.0 16.5 9.0
2019-Jun-07 21:00N 57°36' W 152°18'0 0.0 100 / 121015.7 14.7 9.5
2019-Jun-07 20:00N 57°36' W 152°18'0 0.0 080 / 121015.7 12.510.0
2019-Jun-07 19:00N 57°36' W 152°18'0 0.0 080 / 101015.7 13.9 8.7
2019-Jun-07 18:00N 57°36' W 152°18'0 0.0 100 / 81015.7 13.2 9.6
2019-Jun-07 17:00N 57°36' W 152°18'0 0.0 090 / 41015.5 13.5 9.9
2019-Jun-07 16:00N 57°36' W 152°18'0 0.0 110 / 21015.4 15.5 9.2
2019-Jun-07 15:00N 57°36' W 152°18'0 0.0 210 / 21015.2 16.9 9.3
2019-Jun-07 14:00N 57°36' W 152°18'0 0.0 210 / 21015.0 12.8 8.5
2019-Jun-07 13:00N 57°36' W 152°18'0 0.0 210 / 51015.0 10.8 8.2
2019-Jun-07 12:00N 57°36' W 152°18'0 0.0 220 / 31015.0 11.0 8.6
2019-Jun-07 11:00N 57°36' W 152°18'0 0.0 220 / 51015.1 11.6 9.2
2019-Jun-07 10:00N 57°36' W 152°18'0 0.0 220 / 31015.4 12.2 9.4
2019-Jun-07 09:00N 57°36' W 152°18'0 0.0 220 / 61015.4 12.3 9.5
2019-Jun-07 08:00N 57°36' W 152°18'0 0.0 210 / 41015.6 13.6 9.8
2019-Jun-07 07:00N 57°36' W 152°18'3 3.2 250 / 41015.6 15.510.5
2019-Jun-07 06:00N 57°36' W 152°12'3 3.2
2019-Jun-07 05:00N 57°36' W 152°18'7 6.8 300 / 21015.2 16.110.6
2019-Jun-07 04:00N 57°42' W 152°12'1413.6 180 / 71015.0 12.110.0
2019-Jun-07 03:00N 57°30' W 152°00'7 6.8 190 / 91015.6 11.910.5
2019-Jun-07 02:00N 57°24' W 152°06'7 6.8 200 / 81015.6 11.910.8
2019-Jun-07 01:00N 57°30' W 152°00'0 0.0 220 / 111015.7 10.710.1
2019-Jun-07 00:00N 57°30' W 152°00'0 0.0 220 / 91016.2 11.510.6
2019-Jun-06 23:00N 57°30' W 152°00'0 0.0 210 / 101016.0 10.0 9.7
2019-Jun-06 22:00N 57°30' W 152°00'7 6.8 200 / 41016.4 11.910.6
2019-Jun-06 21:00N 57°24' W 152°06'   190 / 81016.4 10.810.0
Track history (hours):
 
Tides and Currents Weather Stations Pressure Air Temp Water Temp Dewpoint Dewpoint Depression Visibility Wind Speed Wind Dir Waves Ship Positions

Oceanographic research ship Rainier (USA)

Detailed information on ship capabilities available from University of Delaware's Ocean Information Center.

Last reported at 2019-Jun-19 20:00 UTC. Time now 2019-Jun-19 20:51 UTC.
Position N 57°30' W 152°42'.

Type: Other ship. MMSI: 303935000.

Wind from 130 at 13 knots

Barometer 1023.6 mb
Air temperature 13.0 ° C
Dewpoint 9.3 ° C

Date/timePositionNaut miles runAvg speedWind from/ knotsBaromVisibWave heightAir tempDewpointWater temp
2019-Jun-19 20:00N 57°30' W 152°42'0 0.0 130 / 131023.6 13.0 9.3
2019-Jun-19 19:00N 57°30' W 152°42'0 0.0 140 / 141023.6 12.2 9.0
2019-Jun-19 17:00N 57°30' W 152°42'0 0.0 340 1023.2 14.2 9.4
2019-Jun-19 16:00N 57°30' W 152°42'0 0.0 270 / 41023.2 13.5 9.0
2019-Jun-19 15:00N 57°30' W 152°42'0 0.0 1023.1 9.6 8.8
2019-Jun-19 14:00N 57°30' W 152°42'0 0.0 030 / 31022.7 9.4 8.8
2019-Jun-19 13:00N 57°30' W 152°42'0 0.0 1022.4 10.0 8.8
2019-Jun-19 12:00N 57°30' W 152°42'0 0.0 010 / 21022.2 9.9 8.7
2019-Jun-19 11:00N 57°30' W 152°42'0 0.0 070 / 11022.1 10.5 8.9
2019-Jun-19 10:00N 57°30' W 152°42'0 0.0 030 / 21021.6 9.8 8.4
2019-Jun-19 09:00N 57°30' W 152°42'0 0.0 030 / 41021.1 9.8 8.4
2019-Jun-19 08:00N 57°30' W 152°42'0 0.0 020 / 31021.0 10.3 8.4
2019-Jun-19 07:00N 57°30' W 152°42'0 0.0 050 / 21020.5 11.4 8.4
2019-Jun-19 06:00N 57°30' W 152°42'0 0.0 210 / 41020.0 12.2 8.1
2019-Jun-19 04:00N 57°30' W 152°42'0 0.0 280 / 41019.3 12.1 8.8
2019-Jun-19 03:00N 57°30' W 152°42'0 0.0 270 / 21019.0 12.9 7.6
2019-Jun-19 02:00N 57°30' W 152°42'0 0.0 130 / 71018.3 12.6 7.9
2019-Jun-19 01:00N 57°30' W 152°42'0 0.0 130 / 131017.7 11.8 7.7
2019-Jun-19 00:00N 57°30' W 152°42'0 0.0 130 / 151017.1 11.7 7.4
2019-Jun-18 23:00N 57°30' W 152°42'0 0.0 130 / 151016.3 12.0 6.7
2019-Jun-18 22:00N 57°30' W 152°42'0 0.0 140 / 131015.7 12.4 6.7
2019-Jun-18 21:00N 57°30' W 152°42'0 0.0 150 / 91015.1 12.2 6.5
2019-Jun-18 20:00N 57°30' W 152°42'0 0.0 160 / 61014.6 13.1 5.0
2019-Jun-18 19:00N 57°30' W 152°42'0 0.0 010 / 21014.3 11.7 4.9
2019-Jun-18 18:00N 57°30' W 152°42'0 0.0 300 / 21013.9 10.9 6.6
2019-Jun-18 17:00N 57°30' W 152°42'0 0.0 290 / 61013.3 9.6 7.4
2019-Jun-18 16:00N 57°30' W 152°42'0 0.0 290 / 51012.7 8.9 5.6
2019-Jun-18 15:00N 57°30' W 152°42'0 0.0 340 / 11011.6 8.8 6.1
2019-Jun-18 14:00N 57°30' W 152°42'0 0.0 010 / 31011.0 8.6 6.1
2019-Jun-18 12:00N 57°30' W 152°42'0 0.0 070 / 41009.8 10.0 7.4
2019-Jun-18 11:00N 57°30' W 152°42'0 0.0 060 / 41009.1 9.9 7.7
2019-Jun-18 10:00N 57°30' W 152°42'0 0.0 050 / 71008.4 10.3 7.7
2019-Jun-18 09:00N 57°30' W 152°42'0 0.0 050 / 21007.9 10.2 8.0
2019-Jun-18 08:00N 57°30' W 152°42'0 0.0 020 / 71007.3 10.1 8.2
2019-Jun-18 07:00N 57°30' W 152°42'0 0.0 060 / 51007.0 10.7 8.1
2019-Jun-18 06:00N 57°30' W 152°42'0 0.0 080 / 11006.2 10.9 8.3
2019-Jun-18 05:00N 57°30' W 152°42'0 0.0 040 / 31005.6 11.0 8.6
2019-Jun-18 04:00N 57°30' W 152°42'7 6.8 050 / 61004.7 11.4 8.8
2019-Jun-18 03:00N 57°24' W 152°36'10 9.7 100 / 51005.8 5.4 10.5 9.3 9.4
2019-Jun-18 02:00N 57°24' W 152°18'1413.6 040 / 121004.0 10.6 8.9
2019-Jun-18 01:00N 57°36' W 152°06'14 4.7 030 / 71003.6 10.1 9.3
2019-Jun-17 22:00N 57°42' W 152°30'0 0.0 070 / 51002.7 10.610.4
2019-Jun-17 21:00N 57°42' W 152°30'0 0.0 060 / 91002.4 10.410.2
2019-Jun-17 20:00N 57°42' W 152°30'0 0.0 040 / 91001.9 10.510.2
2019-Jun-17 19:00N 57°42' W 152°30'0 0.0 040 / 101001.6 10.710.2
2019-Jun-17 18:00N 57°42' W 152°30'0 0.0 040 / 91001.3 11.2 9.5
2019-Jun-17 17:00N 57°42' W 152°30'0 0.0 010 / 81001.0 11.0 9.6
2019-Jun-17 16:00N 57°42' W 152°30'0 0.0 010 / 131000.8 10.6 9.0
2019-Jun-17 15:00N 57°42' W 152°30'0 0.0 020 / 111000.8 10.9 9.5
2019-Jun-17 14:00N 57°42' W 152°30'0 0.0 010 / 91000.8 10.5 9.3
2019-Jun-17 13:00N 57°42' W 152°30'0 0.0 030 / 151001.3 10.0 8.8
2019-Jun-17 12:00N 57°42' W 152°30'0 0.0 020 / 151001.8 9.8 8.9
2019-Jun-17 11:00N 57°42' W 152°30'0 0.0 030 / 141002.2 9.8 8.9
2019-Jun-17 10:00N 57°42' W 152°30'0 0.0 030 / 121002.4 9.6 8.8
2019-Jun-17 09:00N 57°42' W 152°30'0 0.0 040 / 171003.0 9.8 8.9
2019-Jun-17 08:00N 57°42' W 152°30'0 0.0 040 / 181003.1 9.8 8.6
2019-Jun-17 07:00N 57°42' W 152°30'0 0.0 040 / 171003.8 9.8 8.7
2019-Jun-17 06:00N 57°42' W 152°30'0 0.0 040 / 111004.1 9.7 8.9
2019-Jun-17 05:00N 57°42' W 152°30'0 0.0 040 / 141004.5 9.6 8.5
2019-Jun-17 04:00N 57°42' W 152°30'0 0.0 040 / 151004.7 9.8 8.7
2019-Jun-17 03:00N 57°42' W 152°30'0 0.0 040 / 141005.0 9.7 8.1
2019-Jun-17 02:00N 57°42' W 152°30'0 0.0 050 / 161005.3 9.9 8.5
2019-Jun-17 01:00N 57°42' W 152°30'0 0.0 040 / 111005.6 10.4 8.5
2019-Jun-17 00:00N 57°42' W 152°30'0 0.0 040 / 121005.9 10.1 8.7
2019-Jun-16 23:00N 57°42' W 152°30'0 0.0 040 / 141006.2 9.5 8.4
2019-Jun-16 22:00N 57°42' W 152°30'0 0.0 050 / 161006.2 10.8 8.0
2019-Jun-16 21:00N 57°42' W 152°30'0 0.0 050 / 111006.6 10.9 7.0
2019-Jun-16 20:00N 57°42' W 152°30'0 0.0 050 / 101006.8 10.9 7.2
2019-Jun-16 19:00N 57°42' W 152°30'0 0.0 060 / 91006.8 10.9 8.0
2019-Jun-16 18:00N 57°42' W 152°30'0 0.0 050 / 71007.0 10.5 7.7
2019-Jun-16 17:00N 57°42' W 152°30'0 0.0 040 / 51007.0 10.0 7.8
2019-Jun-16 16:00N 57°42' W 152°30'0 0.0 170 / 11007.1 7.3 6.6
2019-Jun-16 15:00N 57°42' W 152°30'0 0.0 220 / 21007.0 5.5 5.1
2019-Jun-16 14:00N 57°42' W 152°30'0 0.0 170 / 11006.8 5.6 5.3
2019-Jun-16 13:00N 57°42' W 152°30'0 0.0 080 1006.7 5.4 5.1
2019-Jun-16 12:00N 57°42' W 152°30'0 0.0 210 / 31006.7 5.6 5.3
2019-Jun-16 11:00N 57°42' W 152°30'0 0.0 150 / 11006.8 6.0 5.6
2019-Jun-16 10:00N 57°42' W 152°30'0 0.0 220 / 31006.8 6.7 6.1
2019-Jun-16 09:00N 57°42' W 152°30'0 0.0 150 / 11006.8 7.7 6.8
2019-Jun-16 08:00N 57°42' W 152°30'0 0.0 240 / 21006.8 9.2 7.6
2019-Jun-16 07:00N 57°42' W 152°30'0 0.0 360 / 31006.7 10.5 8.6
2019-Jun-16 06:00N 57°42' W 152°30'0 0.0 040 / 91006.4 10.4 8.3
2019-Jun-16 05:00N 57°42' W 152°30'0 0.0 040 / 81006.2 10.8 8.7
2019-Jun-16 04:00N 57°42' W 152°30'0 0.0 010 / 121006.2 11.5 8.9
2019-Jun-16 03:00N 57°42' W 152°30'0 0.0 020 / 21006.2 13.6 8.4
2019-Jun-16 02:00N 57°42' W 152°30'0 0.0 070 / 51006.2 12.7 8.4
2019-Jun-16 01:00N 57°42' W 152°30'0 0.0 050 / 71006.3 12.9 8.4
2019-Jun-16 00:00N 57°42' W 152°30'0 0.0 060 / 71006.2 11.3 9.7
2019-Jun-15 23:00N 57°42' W 152°30'0 0.0 010 / 71006.2 10.510.3
2019-Jun-15 22:00N 57°42' W 152°30'0 0.0 050 / 71006.2 9.8 9.8
2019-Jun-15 21:00N 57°42' W 152°30'0 0.0 060 / 91006.2 9.9 9.9
2019-Jun-15 20:00N 57°42' W 152°30'0 0.0 050 / 81006.2 10.010.0
2019-Jun-15 19:00N 57°42' W 152°30'0 0.0 060 / 101006.2 10.010.0
2019-Jun-15 18:00N 57°42' W 152°30'0 0.0 050 / 91006.2 9.9 9.9
2019-Jun-15 17:00N 57°42' W 152°30'0 0.0 050 / 81006.2 9.8 9.8
2019-Jun-15 16:00N 57°42' W 152°30'0 0.0 060 / 61006.4 9.8 9.8
2019-Jun-15 15:00N 57°42' W 152°30'0 0.0 060 / 91006.4 9.9 9.9
2019-Jun-15 14:00N 57°42' W 152°30'0 0.0 050 / 91006.5 9.9 9.9
2019-Jun-15 13:00N 57°42' W 152°30'0 0.0 050 / 81006.8 10.010.0
2019-Jun-15 12:00N 57°42' W 152°30'0 0.0 050 / 81007.1 9.9 9.9
2019-Jun-15 11:00N 57°42' W 152°30'0 0.0 050 / 61007.4 10.010.0
2019-Jun-15 10:00N 57°42' W 152°30'0 0.0 050 / 71007.9 10.0 9.9
2019-Jun-15 09:00N 57°42' W 152°30'0 0.0 050 / 81008.2 10.110.1
2019-Jun-15 08:00N 57°42' W 152°30'0 0.0 050 / 101008.4 9.9 9.9
2019-Jun-15 07:00N 57°42' W 152°30'0 0.0 060 / 81008.4 10.010.0
2019-Jun-15 06:00N 57°42' W 152°30'0 0.0 050 / 91008.4 10.0 9.9
2019-Jun-15 05:00N 57°42' W 152°30'0 0.0 060 / 101008.7 10.1 9.9
2019-Jun-15 04:00N 57°42' W 152°30'0 0.0 050 / 81009.0 10.1 9.8
2019-Jun-15 03:00N 57°42' W 152°30'0 0.0 060 / 121009.5 10.1 9.8
2019-Jun-15 02:00N 57°42' W 152°30'0 0.0 050 / 111009.9 10.2 9.7
2019-Jun-15 01:00N 57°42' W 152°30'0 0.0 060 / 111010.1 10.3 9.7
2019-Jun-15 00:00N 57°42' W 152°30'0 0.0 060 / 91010.5 10.1 9.3
2019-Jun-14 23:00N 57°42' W 152°30'0 0.0 060 / 81010.7 10.4 9.3
2019-Jun-14 22:00N 57°42' W 152°30'0 0.0 070 / 81011.0 10.2 9.3
2019-Jun-14 21:00N 57°42' W 152°30'0 0.0 060 / 71011.2 10.3 9.4
2019-Jun-14 20:00N 57°42' W 152°30'0 0.0 060 / 81011.6 10.3 9.1
2019-Jun-14 19:00N 57°42' W 152°30'0 0.0 050 / 71011.8 10.0 8.9
2019-Jun-14 18:00N 57°42' W 152°30'0 0.0 050 / 71011.9 9.8 8.9
2019-Jun-14 17:00N 57°42' W 152°30'0 0.0 050 / 61012.2 9.9 9.3
2019-Jun-14 16:00N 57°42' W 152°30'6 6.4 070 / 141012.2 9.3 9.3
2019-Jun-14 15:00N 57°42' W 152°18'9 8.8 130 / 141012.5 9.1 9.1
2019-Jun-14 14:00N 57°36' W 152°06'333026463.4 150 / 111012.2 9.1 9.0
2019-Jun-14 13:52N 36°51' W 076°18'0 0.8
2019-Jun-14 13:27N 36°51' W 076°18'33317150.2
2019-Jun-14 13:00N 57°30' W 152°06'0 0.0 150 / 51012.2 9.3 9.3
2019-Jun-14 12:00N 57°30' W 152°06'0 0.0 070 / 71012.4 9.7 9.6
2019-Jun-14 11:00N 57°30' W 152°06'6 6.0 080 / 121012.8 9.8 9.7
2019-Jun-14 10:00N 57°24' W 152°06'0 0.0 080 / 121013.3 10.0 9.7
2019-Jun-14 09:00N 57°24' W 152°06'7 6.8 080 / 91013.6 9.9 9.4
2019-Jun-14 08:00N 57°30' W 152°00'3 3.2 110 / 111014.1 9.9 9.6
2019-Jun-14 07:00N 57°30' W 152°06'3 1.6 090 / 81013.9 9.9 9.6
2019-Jun-14 05:00N 57°30' W 152°00'7 6.8 120 / 91014.4 9.6 9.5
2019-Jun-14 04:00N 57°24' W 152°06'7 6.8 100 / 81014.7 9.6 9.5
2019-Jun-14 03:00N 57°30' W 152°00'7 6.8 130 / 51016.5 9.8 9.6
2019-Jun-14 02:00N 57°24' W 152°06'0 0.0 120 / 101014.8 10.1 9.9
2019-Jun-14 00:00N 57°24' W 152°06'1212.4 090 / 131015.4 10.3 9.8
2019-Jun-13 23:00N 57°36' W 152°00'1212.4 070 / 101015.6 10.310.1
2019-Jun-13 22:00N 57°24' W 152°06'3 3.2 080 / 71015.4 10.2 9.3
2019-Jun-13 21:00N 57°24' W 152°00'6 6.0 080 / 91016.5 5.4 9.9 9.7 8.3
2019-Jun-13 20:00N 57°30' W 152°00'0 0.0 110 / 81015.0 10.1 9.8
2019-Jun-13 19:00N 57°30' W 152°00'7 6.8 080 / 71014.7 10.210.2
2019-Jun-13 18:00N 57°24' W 152°06'10 9.7 100 / 71014.5 9.4 9.4
2019-Jun-13 17:00N 57°24' W 152°24'6 6.5 050 / 121013.9 9.7 9.2
2019-Jun-13 16:00N 57°24' W 152°36'7 6.8 090 / 71014.2 9.9 9.4
2019-Jun-13 15:00N 57°30' W 152°42'0 0.0 130 / 31014.4 10.6 9.5
2019-Jun-13 14:00N 57°30' W 152°42'0 0.0 110 / 21013.9 10.4 9.3
2019-Jun-13 13:00N 57°30' W 152°42'0 0.0 360 / 41013.9 10.0 9.2
2019-Jun-13 12:00N 57°30' W 152°42'0 0.0 340 / 51013.9 9.9 9.0
2019-Jun-13 11:00N 57°30' W 152°42'0 0.0 110 / 31014.0 10.4 9.3
2019-Jun-13 10:00N 57°30' W 152°42'0 0.0 030 / 81013.9 9.8 9.0
2019-Jun-13 09:00N 57°30' W 152°42'0 0.0 020 / 81013.9 10.2 9.4
2019-Jun-13 08:00N 57°30' W 152°42'0 0.0 050 / 91013.6 10.7 9.5
2019-Jun-13 07:00N 57°30' W 152°42'0 0.0 040 / 61013.3 11.2 9.6
2019-Jun-13 06:00N 57°30' W 152°42'0 0.0 020 / 111013.0 11.2 9.6
2019-Jun-13 05:00N 57°30' W 152°42'0 0.0 030 / 101012.8 11.7 9.6
2019-Jun-13 04:00N 57°30' W 152°42'0 0.0 030 / 71012.2 12.5 9.9
2019-Jun-13 03:00N 57°30' W 152°42'0 0.0 160 / 31012.2 12.010.4
2019-Jun-13 02:00N 57°30' W 152°42'0 0.0 210 / 31012.4 12.310.2
2019-Jun-13 01:00N 57°30' W 152°42'0 0.0 100 / 31012.5 12.6 9.8
2019-Jun-13 00:00N 57°30' W 152°42'0 0.0 160 / 21012.7 12.5 9.9
2019-Jun-12 23:00N 57°30' W 152°42'0 0.0 010 / 151012.5 12.7 9.5
2019-Jun-12 22:00N 57°30' W 152°42'0 0.0 360 / 111012.2 12.9 9.4
2019-Jun-12 21:00N 57°30' W 152°42'0 0.0 030 / 101012.1 12.410.0
2019-Jun-12 20:00N 57°30' W 152°42'0 0.0 030 / 151011.8 12.0 9.6
2019-Jun-12 19:00N 57°30' W 152°42'0 0.0 1011.6 12.3 9.7
2019-Jun-12 18:00N 57°30' W 152°42'335385614.3 010 / 141011.6 11.2 9.8
2019-Jun-12 17:57N 36°51' W 076°18'1 1.8
2019-Jun-12 17:30N 36°50' W 076°18'33546537.4
2019-Jun-12 17:00N 57°30' W 152°42'335433170.0 020 / 101011.2 11.3 9.9
2019-Jun-12 16:53N 36°51' W 076°18'33543731.1
2019-Jun-12 16:00N 57°30' W 152°42'33534364.6 010 / 61011.3 11.0 9.8
2019-Jun-12 15:13N 36°51' W 076°18'335314475.4
2019-Jun-12 15:00N 57°30' W 152°42'335414618.0 010 / 81011.5 10.6 9.2
2019-Jun-12 14:46N 36°50' W 076°18'0 0.0
2019-Jun-12 14:30N 36°50' W 076°18'33546502.1
2019-Jun-12 14:00N 57°30' W 152°42'0 0.0 1011.3 10.6 9.4
2019-Jun-12 13:00N 57°30' W 152°42'0 0.0 350 / 121011.2 10.8 9.9
2019-Jun-12 12:00N 57°30' W 152°42'0 0.0 010 / 121011.0 10.9 9.7
2019-Jun-12 11:00N 57°30' W 152°42'0 0.0 020 / 121010.7 11.2 9.5
2019-Jun-12 10:00N 57°30' W 152°42'0 0.0 010 / 131010.8 11.4 9.7
2019-Jun-12 09:00N 57°30' W 152°42'0 0.0 1010.5 11.5 9.9
2019-Jun-12 08:00N 57°30' W 152°42'0 0.0 050 / 61010.1 12.4 9.6
2019-Jun-12 07:00N 57°30' W 152°42'0 0.0 020 / 91009.8 13.2 9.1
2019-Jun-12 06:00N 57°30' W 152°42'0 0.0 340 / 51009.6 13.5 9.2
2019-Jun-12 05:00N 57°30' W 152°42'0 0.0 010 / 111009.3 13.4 8.9
2019-Jun-12 04:00N 57°30' W 152°42'0 0.0 020 / 151009.3 13.9 8.7
2019-Jun-12 03:00N 57°30' W 152°42'0 0.0 030 / 171009.4 14.2 8.6
2019-Jun-12 02:00N 57°30' W 152°42'0 0.0 010 / 111009.6 14.1 8.7
2019-Jun-12 01:00N 57°30' W 152°42'0 0.0 030 / 171009.6 14.6 9.0
2019-Jun-12 00:00N 57°30' W 152°42'0 0.0 020 / 171009.9 13.9 9.3
2019-Jun-11 23:00N 57°30' W 152°42'0 0.0 010 / 111010.1 13.6 9.6
2019-Jun-11 22:00N 57°30' W 152°42'0 0.0 020 / 131010.2 13.310.3
2019-Jun-11 21:00N 57°30' W 152°42'0 0.0 010 / 151010.1 12.210.9
2019-Jun-11 20:00N 57°30' W 152°42'0 0.0 020 / 171010.1 12.110.7
2019-Jun-11 19:00N 57°30' W 152°42'0 0.0 020 / 161009.9 11.510.6
2019-Jun-11 18:00N 57°30' W 152°42'0 0.0 020 / 211009.5 11.510.2
2019-Jun-11 17:00N 57°30' W 152°42'0 0.0 020 / 191009.5 11.410.1
2019-Jun-11 16:00N 57°30' W 152°42'0 0.0 010 / 141009.6 11.2 9.9
2019-Jun-11 15:00N 57°30' W 152°42'0 0.0 020 / 131009.8 10.9 9.8
2019-Jun-11 14:00N 57°30' W 152°42'0 0.0 020 / 171009.9 10.7 9.9
2019-Jun-11 13:00N 57°30' W 152°42'0 0.0 010 / 111010.1 10.5 9.9
2019-Jun-11 12:00N 57°30' W 152°42'0 0.0 350 / 81010.4 10.3 9.5
2019-Jun-11 11:00N 57°30' W 152°42'0 0.0 010 / 101010.7 9.8 8.9
2019-Jun-11 10:00N 57°30' W 152°42'0 0.0 350 / 51010.8 11.2 5.9
2019-Jun-11 09:00N 57°30' W 152°42'0 0.0 330 / 41011.6 11.5 5.8
2019-Jun-11 08:00N 57°30' W 152°42'0 0.0 010 / 131011.8 11.7 5.1
2019-Jun-11 07:00N 57°30' W 152°42'0 0.0 010 / 141011.8 11.5 5.4
2019-Jun-11 06:00N 57°30' W 152°42'0 0.0 010 / 151011.9 11.7 6.0
2019-Jun-11 05:00N 57°30' W 152°42'0 0.0 020 / 171011.9 11.9 6.2
2019-Jun-11 04:00N 57°30' W 152°42'0 0.0 1012.5 11.9 6.6
2019-Jun-11 03:00N 57°30' W 152°42'0 0.0 020 / 171013.0 12.4 6.7
2019-Jun-11 02:00N 57°30' W 152°42'0 0.0 030 / 151013.7 12.6 6.9
2019-Jun-11 01:00N 57°30' W 152°42'0 0.0 020 / 151014.0 13.2 6.5
2019-Jun-11 00:00N 57°30' W 152°42'0 0.0 030 / 101014.6 13.3 6.6
2019-Jun-10 23:00N 57°30' W 152°42'0 0.0 030 / 131014.9 14.1 6.2
2019-Jun-10 22:00N 57°30' W 152°42'0 0.0 030 / 101015.4 13.9 6.0
2019-Jun-10 21:00N 57°30' W 152°42'0 0.0 1015.6 12.2 5.6
2019-Jun-10 20:00N 57°30' W 152°42'0 0.0 030 / 101016.0 12.5 6.1
2019-Jun-10 19:00N 57°30' W 152°42'33539028.8 030 / 51016.5 11.5 6.2
2019-Jun-10 18:37N 36°51' W 076°18'33535334.3
2019-Jun-10 18:00N 57°30' W 152°42'0 0.0 120 / 121016.6 10.4 6.0
2019-Jun-10 17:00N 57°30' W 152°42'0 0.0 150 / 71016.6 9.5 6.8
2019-Jun-10 16:00N 57°30' W 152°42'0 0.0 290 / 41016.8 9.5 6.2
2019-Jun-10 15:00N 57°30' W 152°42'0 0.0 290 / 41017.3 7.4 5.9
2019-Jun-10 14:00N 57°30' W 152°42'335438447.8 040 / 41017.8 5.1 4.5
2019-Jun-10 13:54N 36°51' W 076°18'33543674.0
2019-Jun-10 13:00N 57°30' W 152°42'0 0.0 350 / 41018.1 4.5 3.9
2019-Jun-10 12:00N 57°30' W 152°42'0 0.0 010 / 41018.5 5.3 4.4
2019-Jun-10 11:00N 57°30' W 152°42'0 0.0 360 / 41019.0 6.3 5.1
2019-Jun-10 10:00N 57°30' W 152°42'0 0.0 010 / 41019.8 7.6 5.6
2019-Jun-10 09:00N 57°30' W 152°42'0 0.0 010 / 41020.1 8.0 5.6
2019-Jun-10 08:00N 57°30' W 152°42'0 0.0 080 / 71020.1 8.8 5.5
2019-Jun-10 07:00N 57°30' W 152°42'0 0.0 080 / 111019.9 9.6 5.8
2019-Jun-10 06:00N 57°30' W 152°42'0 0.0 040 / 101019.9 10.7 5.5
2019-Jun-10 05:00N 57°30' W 152°42'0 0.0 030 / 111020.2 11.5 5.4
2019-Jun-10 04:00N 57°30' W 152°42'0 0.0 080 / 91021.0 11.2 5.3
2019-Jun-10 03:00N 57°30' W 152°42'0 0.0 030 / 101021.3 11.6 5.3
2019-Jun-10 02:00N 57°30' W 152°42'0 0.0 020 / 111021.6 11.5 4.9
2019-Jun-10 01:00N 57°30' W 152°42'0 0.0 010 / 81022.4 11.5 5.8
2019-Jun-10 00:00N 57°30' W 152°42'0 0.0 010 / 111022.7 11.2 6.1
2019-Jun-09 23:00N 57°30' W 152°42'0 0.0 100 / 71023.1 11.5 5.6
2019-Jun-09 22:00N 57°30' W 152°42'0 0.0 030 / 111023.1 11.6 4.6
2019-Jun-09 21:00N 57°30' W 152°42'0 0.0 010 / 81023.1 11.4 5.1
2019-Jun-09 20:00N 57°30' W 152°42'0 0.0 060 / 41023.4 10.7 4.8
2019-Jun-09 19:00N 57°30' W 152°42'0 0.0 110 / 41023.1 10.4 4.5
2019-Jun-09 18:00N 57°30' W 152°42'0 0.0 080 / 51023.0 10.0 5.2
2019-Jun-09 17:00N 57°30' W 152°42'0 0.0 040 / 31023.0 9.1 6.0
2019-Jun-09 16:00N 57°30' W 152°42'0 0.0 010 / 51022.7 9.3 5.3
2019-Jun-09 15:00N 57°30' W 152°42'0 0.0 020 / 21022.5 9.0 4.6
2019-Jun-09 14:00N 57°30' W 152°42'0 0.0 110 / 51022.4 8.7 6.0
2019-Jun-09 13:00N 57°30' W 152°42'0 0.0 090 / 61022.2 9.0 4.6
2019-Jun-09 12:00N 57°30' W 152°42'0 0.0 030 / 31022.2 8.6 5.2
2019-Jun-09 11:00N 57°30' W 152°42'0 0.0 040 / 61022.4 8.7 5.3
2019-Jun-09 10:00N 57°30' W 152°42'0 0.0 080 / 51022.5 8.6 6.2
2019-Jun-09 09:00N 57°30' W 152°42'0 0.0 090 / 51022.5 8.9 6.0
2019-Jun-09 08:00N 57°30' W 152°42'0 0.0 080 / 61022.4 8.7 7.0
2019-Jun-09 07:00N 57°30' W 152°42'0 0.0 170 / 11021.9 8.9 7.0
2019-Jun-09 06:00N 57°30' W 152°42'0 0.0 080 / 71021.2 8.8 7.1
2019-Jun-09 05:00N 57°30' W 152°42'0 0.0 140 / 91020.7 9.2 6.6
2019-Jun-09 04:00N 57°30' W 152°42'0 0.0 140 / 81020.4 9.2 7.2
2019-Jun-09 03:00N 57°30' W 152°42'0 0.0 130 / 101020.4 9.0 6.8
2019-Jun-09 02:00N 57°30' W 152°42'0 0.0 130 / 141020.4 9.0 7.3
2019-Jun-09 01:00N 57°30' W 152°42'0 0.0 130 / 131020.2 9.2 7.3
2019-Jun-09 00:00N 57°30' W 152°42'0 0.0 130 / 151020.2 9.3 7.9
2019-Jun-08 23:00N 57°30' W 152°42'0 0.0 130 / 141020.1 9.3 8.4
2019-Jun-08 22:00N 57°30' W 152°42'7 3.4 140 / 121019.9 9.6 8.5
2019-Jun-08 20:00N 57°24' W 152°36'10 9.7 150 / 31019.6 8.5 8.5
2019-Jun-08 19:00N 57°24' W 152°18'7 6.8 180 / 41019.4 8.2 8.2
2019-Jun-08 18:00N 57°30' W 152°12'7 6.8 220 / 81019.2 8.3 8.3
2019-Jun-08 17:00N 57°36' W 152°06'0 0.0 200 / 81018.7 8.1 8.1
2019-Jun-08 16:00N 57°36' W 152°06'6 6.4 170 / 91018.2 8.0 8.0
2019-Jun-08 15:00N 57°36' W 152°18'0 0.0 1017.9 7.8 7.8
2019-Jun-08 14:00N 57°36' W 152°18'0 0.0 070 / 11017.4 8.1 8.1
2019-Jun-08 13:00N 57°36' W 152°18'0 0.0 010 / 51017.3 7.9 7.9
2019-Jun-08 12:00N 57°36' W 152°18'0 0.0 130 / 21017.6 8.3 8.3
2019-Jun-08 11:00N 57°36' W 152°18'0 0.0 300 / 31017.1 8.7 8.7
2019-Jun-08 10:00N 57°36' W 152°18'0 0.0 330 / 21017.1 8.3 8.3
2019-Jun-08 09:00N 57°36' W 152°18'0 0.0 310 / 61017.1 8.1 8.1
2019-Jun-08 08:00N 57°36' W 152°18'0 0.0 290 / 81017.1 8.0 8.0
2019-Jun-08 07:00N 57°36' W 152°18'0 0.0 280 / 121016.5 8.3 8.3
2019-Jun-08 06:00N 57°36' W 152°18'0 0.0 270 / 101015.9 10.8 9.9
2019-Jun-08 05:00N 57°36' W 152°18'0 0.0 270 / 41015.5 13.711.0
2019-Jun-08 03:00N 57°36' W 152°18'0 0.0 110 / 111015.2 17.5 9.4
2019-Jun-08 02:00N 57°36' W 152°18'0 0.0 110 / 151015.2 17.3 8.7
2019-Jun-08 01:00N 57°36' W 152°18'0 0.0 110 / 151015.6 16.6 9.3
2019-Jun-08 00:00N 57°36' W 152°18'0 0.0 100 / 141015.7 15.2 9.3
2019-Jun-07 23:00N 57°36' W 152°18'0 0.0 100 / 141015.7 15.9 8.4
2019-Jun-07 22:00N 57°36' W 152°18'0 0.0 090 / 101016.0 16.5 9.0
2019-Jun-07 21:00N 57°36' W 152°18'0 0.0 100 / 121015.7 14.7 9.5
2019-Jun-07 20:00N 57°36' W 152°18'0 0.0 080 / 121015.7 12.510.0
2019-Jun-07 19:00N 57°36' W 152°18'0 0.0 080 / 101015.7 13.9 8.7
2019-Jun-07 18:00N 57°36' W 152°18'0 0.0 100 / 81015.7 13.2 9.6
2019-Jun-07 17:00N 57°36' W 152°18'0 0.0 090 / 41015.5 13.5 9.9
2019-Jun-07 16:00N 57°36' W 152°18'0 0.0 110 / 21015.4 15.5 9.2
2019-Jun-07 15:00N 57°36' W 152°18'0 0.0 210 / 21015.2 16.9 9.3
2019-Jun-07 14:00N 57°36' W 152°18'0 0.0 210 / 21015.0 12.8 8.5
2019-Jun-07 13:00N 57°36' W 152°18'0 0.0 210 / 51015.0 10.8 8.2
2019-Jun-07 12:00N 57°36' W 152°18'0 0.0 220 / 31015.0 11.0 8.6
2019-Jun-07 11:00N 57°36' W 152°18'0 0.0 220 / 51015.1 11.6 9.2
2019-Jun-07 10:00N 57°36' W 152°18'0 0.0 220 / 31015.4 12.2 9.4
2019-Jun-07 09:00N 57°36' W 152°18'0 0.0 220 / 61015.4 12.3 9.5
2019-Jun-07 08:00N 57°36' W 152°18'0 0.0 210 / 41015.6 13.6 9.8
2019-Jun-07 07:00N 57°36' W 152°18'3 3.2 250 / 41015.6 15.510.5
2019-Jun-07 06:00N 57°36' W 152°12'3 3.2
2019-Jun-07 05:00N 57°36' W 152°18'7 6.8 300 / 21015.2 16.110.6
2019-Jun-07 04:00N 57°42' W 152°12'1413.6 180 / 71015.0 12.110.0
2019-Jun-07 03:00N 57°30' W 152°00'7 6.8 190 / 91015.6 11.910.5
2019-Jun-07 02:00N 57°24' W 152°06'7 6.8 200 / 81015.6 11.910.8
2019-Jun-07 01:00N 57°30' W 152°00'0 0.0 220 / 111015.7 10.710.1
2019-Jun-07 00:00N 57°30' W 152°00'0 0.0 220 / 91016.2 11.510.6
2019-Jun-06 23:00N 57°30' W 152°00'0 0.0 210 / 101016.0 10.0 9.7
2019-Jun-06 22:00N 57°30' W 152°00'7 6.8 200 / 41016.4 11.910.6
2019-Jun-06 21:00N 57°24' W 152°06'   190 / 81016.4 10.810.0

Dump ship's entire track history